Time;durP1;ratioP1;P1;durP2;ratioP2;P2;SDS_P1;SDS_P2;PMS_P1;PMS_P2;Temp;Humidity;BMP_temperature;BMP_pressure;BME280_temperature;BME280_humidity;BME280_pressure;Samples;Min_cycle;Max_cycle;Signal;HPM_P1;HPM_P2
2022/06/28 00:01:51;;;;;;;2.90;1.00;;;;;;;19.77;55.79;101137.56;4147805;28;20045;-65
2022/06/28 00:03:54;;;;;;;1.27;0.60;;;;;;;19.71;55.77;101136.75;4130177;28;20046;-65
2022/06/28 00:05:57;;;;;;;1.38;0.77;;;;;;;19.65;55.97;101133.31;4147813;28;20033;-65
2022/06/28 00:08:00;;;;;;;1.15;0.98;;;;;;;19.60;56.35;101136.00;4147458;28;20042;-65
2022/06/28 00:10:03;;;;;;;1.10;0.90;;;;;;;19.63;56.55;101135.09;4147189;28;20041;-65
2022/06/28 00:12:09;;;;;;;1.77;0.73;;;;;;;19.61;56.35;101143.03;4147523;28;20124;-65
2022/06/28 00:16:33;;;;;;;3.03;0.90;;;;;;;19.59;56.97;101131.63;4142683;28;20132;-64
2022/06/28 00:18:38;;;;;;;0.80;0.70;;;;;;;19.61;57.11;101127.22;4147537;28;20044;-64
2022/06/28 00:20:41;;;;;;;1.48;0.90;;;;;;;19.63;57.28;101137.75;4146011;28;20073;-64
2022/06/28 00:22:45;;;;;;;2.60;0.90;;;;;;;19.64;57.04;101121.00;4128862;28;20129;-64
2022/06/28 00:24:48;;;;;;;3.17;0.68;;;;;;;19.58;57.49;101131.63;4150934;28;20125;-64
2022/06/28 00:26:51;;;;;;;2.05;1.00;;;;;;;19.52;57.84;101132.59;4150843;28;20048;-64
2022/06/28 00:28:55;;;;;;;1.67;0.80;;;;;;;19.53;57.60;101131.69;4145838;28;20042;-64
2022/06/28 00:30:58;;;;;;;3.20;1.10;;;;;;;19.51;57.81;101131.72;4133521;28;20045;-64
2022/06/28 00:33:01;;;;;;;2.25;0.80;;;;;;;19.50;57.95;101127.31;4129696;28;20042;-64
2022/06/28 00:35:05;;;;;;;2.40;1.45;;;;;;;19.44;58.02;101123.91;4147933;28;20073;-64
2022/06/28 00:37:08;;;;;;;1.80;1.42;;;;;;;19.37;58.69;101136.28;4130158;28;20134;-64
2022/06/28 00:39:11;;;;;;;1.20;0.98;;;;;;;19.39;58.51;101129.25;4112932;28;20338;-63
2022/06/28 00:41:14;;;;;;;3.42;1.50;;;;;;;19.38;59.04;101132.75;4147439;28;20124;-64
2022/06/28 00:43:19;;;;;;;2.15;1.30;;;;;;;19.35;59.08;101130.16;4113227;28;20126;-64
2022/06/28 00:45:23;;;;;;;;;;;;;;;19.10;59.54;101143.59;4131363;28;20086;-64
2022/06/28 00:47:27;;;;;;;1.75;1.10;;;;;;;19.17;59.82;101136.50;4155507;28;20004;-64
2022/06/28 00:49:31;;;;;;;1.42;1.00;;;;;;;19.17;59.67;101134.75;4123838;28;20050;-64
2022/06/28 00:51:34;;;;;;;3.90;1.35;;;;;;;19.18;60.16;101139.09;4125953;28;20049;-65
2022/06/28 00:53:36;;;;;;;1.33;1.23;;;;;;;19.21;59.45;101139.97;4147270;28;20030;-64
2022/06/28 00:55:40;;;;;;;2.60;1.45;;;;;;;19.18;59.60;101139.09;4130413;28;20038;-64
2022/06/28 00:57:43;;;;;;;2.88;1.10;;;;;;;19.14;59.73;101140.06;4146855;28;20050;-64
2022/06/28 00:59:46;;;;;;;2.83;1.23;;;;;;;19.14;60.14;101142.69;4143400;28;20521;-64
2022/06/28 01:01:51;;;;;;;6.13;1.38;;;;;;;19.18;60.04;101146.16;4141960;28;20030;-64
2022/06/28 01:03:56;;;;;;;2.65;1.15;;;;;;;19.08;60.53;101134.81;4147405;28;20412;-64
2022/06/28 01:05:59;;;;;;;2.60;1.38;;;;;;;19.19;60.15;101140.88;4128710;28;20110;-65
2022/06/28 01:08:04;;;;;;;1.83;1.35;;;;;;;19.11;60.23;101140.06;4130450;28;20038;-64
2022/06/28 01:10:10;;;;;;;3.58;1.20;;;;;;;18.99;60.47;101137.56;4144831;28;20038;-64
2022/06/28 01:12:14;;;;;;;2.35;1.05;;;;;;;18.94;61.13;101140.25;4129119;28;20042;-64
2022/06/28 01:14:18;;;;;;;1.95;1.20;;;;;;;18.93;61.05;101137.63;4154605;28;20041;-64
2022/06/28 01:16:36;;;;;;;3.25;1.10;;;;;;;18.87;61.42;101129.78;4162201;28;20096;-65
2022/06/28 01:18:48;;;;;;;3.15;0.90;;;;;;;18.88;61.48;101134.16;4116949;28;20501;-64
2022/06/28 01:21:09;;;;;;;3.00;1.23;;;;;;;18.80;62.36;101135.06;4157297;28;20042;-64
2022/06/28 01:23:17;;;;;;;3.90;1.30;;;;;;;18.89;62.38;101146.44;4112937;28;20328;-65
2022/06/28 01:25:22;;;;;;;3.15;1.20;;;;;;;18.82;62.36;101151.75;4143060;28;20072;-64
2022/06/28 01:27:27;;;;;;;2.85;0.98;;;;;;;18.80;62.48;101150.88;4129469;28;20502;-64
2022/06/28 01:29:31;;;;;;;1.13;1.00;;;;;;;18.73;62.60;101143.91;4123674;28;20133;-64
2022/06/28 01:32:07;;;;;;;2.72;1.63;;;;;;;18.74;63.01;101147.44;4118190;28;20054;-64
2022/06/28 01:34:11;;;;;;;2.53;1.42;;;;;;;18.65;63.40;101148.38;4130227;28;20124;-64
2022/06/28 01:36:15;;;;;;;4.82;1.80;;;;;;;18.69;63.02;101150.09;4147684;28;20069;-65
2022/06/28 01:38:20;;;;;;;2.28;1.58;;;;;;;18.66;63.31;101147.47;4128098;28;20118;-64
2022/06/28 01:40:24;;;;;;;3.67;1.83;;;;;;;18.64;63.66;101157.16;4137435;28;20618;-64
2022/06/28 01:42:29;;;;;;;3.63;1.58;;;;;;;18.61;63.63;101157.19;4129386;28;20034;-64
2022/06/28 01:44:33;;;;;;;5.95;1.55;;;;;;;18.61;63.61;101159.81;4124010;28;20597;-64
2022/06/28 01:46:41;;;;;;;1.50;1.30;;;;;;;18.59;63.87;101154.56;4130966;28;20129;-65
2022/06/28 01:48:48;;;;;;;2.30;1.70;;;;;;;18.59;64.46;101158.97;4132723;28;20038;-64
2022/06/28 01:50:57;;;;;;;3.22;1.98;;;;;;;18.60;64.03;101151.06;4146327;28;20525;-65
2022/06/28 01:53:00;;;;;;;3.50;1.90;;;;;;;18.58;64.40;101158.06;4132245;28;20519;-65
2022/06/28 01:55:15;;;;;;;3.35;1.70;;;;;;;18.57;64.20;101155.44;4133343;28;20054;-64
2022/06/28 01:57:21;;;;;;;2.58;1.65;;;;;;;18.57;64.49;101144.91;4144226;28;20038;-64
2022/06/28 01:59:30;;;;;;;3.00;1.90;;;;;;;18.58;64.58;101151.94;4147793;28;20117;-64
2022/06/28 02:01:45;;;;;;;4.18;2.13;;;;;;;18.54;64.65;101158.13;4132140;28;20037;-64
2022/06/28 02:03:51;;;;;;;4.00;1.85;;;;;;;18.52;64.74;101152.00;4148454;28;20378;-64
2022/06/28 02:06:10;;;;;;;2.75;1.85;;;;;;;18.48;64.56;101156.41;4147579;28;20050;-65
2022/06/28 02:08:16;;;;;;;4.03;2.05;;;;;;;18.52;64.50;101152.84;4132258;28;20042;-65
2022/06/28 02:10:40;;;;;;;6.28;2.00;;;;;;;18.55;64.05;101157.25;4149398;28;20125;-64
2022/06/28 02:12:43;;;;;;;4.78;1.95;;;;;;;18.52;64.22;101152.00;4131867;28;20086;-64
2022/06/28 02:14:46;;;;;;;4.45;1.98;;;;;;;18.51;64.28;101150.25;4149769;28;20120;-64
2022/06/28 02:16:49;;;;;;;3.92;2.15;;;;;;;18.46;64.79;101153.78;4149266;28;20050;-64
2022/06/28 02:18:52;;;;;;;3.25;1.80;;;;;;;18.48;64.17;101153.75;4132336;28;20070;-64
2022/06/28 02:20:55;;;;;;;4.40;2.20;;;;;;;18.46;64.34;101155.53;4140101;28;20497;-64
2022/06/28 02:22:58;;;;;;;6.28;2.15;;;;;;;18.53;64.43;101145.81;4131894;28;20051;-64
2022/06/28 02:25:01;;;;;;;2.05;1.35;;;;;;;18.47;64.46;101149.38;4112846;28;20498;-64
2022/06/28 02:27:05;;;;;;;6.18;2.30;;;;;;;18.46;64.42;101148.50;4132693;28;20042;-64
2022/06/28 02:29:09;;;;;;;3.42;2.13;;;;;;;18.52;63.95;101154.63;4132005;28;20054;-65
2022/06/28 02:31:13;;;;;;;7.40;2.47;;;;;;;18.42;64.22;101146.78;4151394;28;20108;-64
2022/06/28 02:33:17;;;;;;;3.90;2.45;;;;;;;18.44;64.36;101150.28;4130530;28;20525;-64
2022/06/28 02:42:22;;;;;;;4.88;2.22;;;;;;;18.33;64.37;101151.25;4141389;28;20397;-65
2022/06/28 02:44:25;;;;;;;4.82;2.30;;;;;;;18.31;64.17;101148.59;4115864;28;20046;-65
2022/06/28 02:46:28;;;;;;;4.55;2.40;;;;;;;18.31;64.32;101159.13;4155241;28;20042;-64
2022/06/28 02:48:32;;;;;;;3.28;2.42;;;;;;;18.28;63.92;101159.16;4131847;28;20526;-64
2022/06/28 02:50:36;;;;;;;4.70;2.65;;;;;;;18.33;64.26;101164.41;4132904;28;20055;-64
2022/06/28 02:52:39;;;;;;;6.28;2.25;;;;;;;18.23;64.42;101161.81;4131153;28;20392;-64
2022/06/28 02:54:42;;;;;;;3.33;2.17;;;;;;;18.22;64.70;101164.47;4131749;28;20043;-64
2022/06/28 02:56:45;;;;;;;4.38;2.00;;;;;;;18.16;64.69;101172.41;4131088;28;20405;-65
2022/06/28 02:58:49;;;;;;;7.70;2.65;;;;;;;18.16;65.67;101175.91;4148923;28;20119;-65
2022/06/28 03:00:52;;;;;;;4.47;1.92;;;;;;;18.11;65.83;101180.34;4131884;28;20125;-65
2022/06/28 03:02:55;;;;;;;3.97;1.60;;;;;;;18.08;65.94;101183.84;4147290;28;20436;-64
2022/06/28 03:04:58;;;;;;;3.97;1.73;;;;;;;18.06;66.35;101193.53;4147236;28;20037;-64
2022/06/28 03:07:01;;;;;;;3.08;1.95;;;;;;;18.02;66.03;101199.69;4157239;28;20048;-65
2022/06/28 03:09:04;;;;;;;2.17;1.70;;;;;;;17.98;65.87;101197.06;4130997;28;20049;-64
2022/06/28 03:11:07;;;;;;;5.80;2.28;;;;;;;17.93;66.00;101204.97;4149510;28;20042;-64
2022/06/28 03:13:10;;;;;;;3.00;1.83;;;;;;;17.95;66.09;101198.81;4131013;28;20133;-64
2022/06/28 03:15:15;;;;;;;3.00;2.08;;;;;;;17.92;65.82;101197.97;4162372;28;20088;-64
2022/06/28 03:17:24;;;;;;;4.28;2.13;;;;;;;17.90;65.73;101199.72;4148125;28;20050;-64
2022/06/28 03:19:27;;;;;;;3.03;2.15;;;;;;;17.92;64.96;101206.72;4145699;28;20478;-64
2022/06/28 03:21:30;;;;;;;6.15;2.50;;;;;;;17.93;64.65;101210.22;4125896;28;20133;-64
2022/06/28 03:23:33;;;;;;;4.80;2.60;;;;;;;17.91;64.60;101206.72;4115242;28;20039;-64
2022/06/28 03:25:36;;;;;;;4.40;2.33;;;;;;;17.93;64.48;101211.13;4141289;28;20639;-64
2022/06/28 03:27:39;;;;;;;6.30;2.47;;;;;;;17.92;64.06;101213.75;4131293;28;20046;-64
2022/06/28 03:29:42;;;;;;;7.18;2.15;;;;;;;17.95;64.17;101211.09;4148577;28;20084;-64
2022/06/28 03:31:52;;;;;;;5.68;2.92;;;;;;;17.94;63.70;101210.22;4131496;28;20038;-64
2022/06/28 03:33:55;;;;;;;6.25;2.42;;;;;;;17.93;63.96;101210.22;4130878;28;20414;-64
2022/06/28 03:35:58;;;;;;;4.53;2.40;;;;;;;17.95;63.83;101208.47;4130220;28;20045;-64
2022/06/28 03:38:08;;;;;;;4.18;2.15;;;;;;;17.95;63.88;101216.38;4130986;28;20133;-64
2022/06/28 03:40:35;;;;;;;5.07;2.38;;;;;;;17.90;63.83;101219.03;4129897;28;20042;-64
2022/06/28 03:42:39;;;;;;;7.43;3.00;;;;;;;17.90;63.93;101218.13;4127440;28;20137;-64
2022/06/28 03:44:42;;;;;;;4.18;2.10;;;;;;;17.91;63.76;101226.00;4131184;28;20125;-64
2022/06/28 03:46:45;;;;;;;4.30;2.15;;;;;;;17.90;63.97;101223.38;4147219;28;20034;-64
2022/06/28 03:49:11;;;;;;;6.00;2.60;;;;;;;17.86;64.29;101226.88;4148792;28;20041;-64
2022/06/28 03:51:25;;;;;;;5.43;2.13;;;;;;;17.85;64.22;101223.38;4142854;28;20111;-64
2022/06/28 03:53:48;;;;;;;4.53;2.00;;;;;;;17.85;64.74;101223.38;4131269;28;20080;-64
2022/06/28 03:56:02;;;;;;;4.15;2.30;;;;;;;17.86;64.41;101224.25;4130888;28;20043;-64
2022/06/28 03:58:05;;;;;;;3.10;1.73;;;;;;;17.87;65.18;101232.16;4146916;28;20042;-64
2022/06/28 04:00:09;;;;;;;5.88;1.75;;;;;;;17.87;65.76;101228.63;4129036;28;20046;-64
2022/06/28 04:02:16;;;;;;;2.50;1.67;;;;;;;17.85;66.18;101228.63;4115165;28;20070;-64
2022/06/28 04:04:21;;;;;;;3.28;1.90;;;;;;;17.86;66.14;101232.13;4163349;28;20029;-64
2022/06/28 04:06:24;;;;;;;;;;;;;;;17.73;66.89;101237.44;4130951;28;20038;-64
2022/06/28 04:08:27;;;;;;;3.78;2.00;;;;;;;17.85;66.60;101235.66;4130376;28;20028;-64
2022/06/28 04:10:32;;;;;;;3.90;1.75;;;;;;;17.87;66.11;101239.16;4130115;28;20050;-64
2022/06/28 04:12:44;;;;;;;2.53;1.90;;;;;;;17.85;66.30;101241.78;4129400;28;20038;-64
2022/06/28 04:14:54;;;;;;;3.50;1.70;;;;;;;17.80;66.29;101235.69;4148662;28;20046;-64
2022/06/28 04:16:57;;;;;;;3.28;1.40;;;;;;;17.78;66.54;101232.16;4147214;28;20046;-64
2022/06/28 04:19:16;;;;;;;1.65;1.52;;;;;;;17.79;68.33;101229.53;4126492;28;20046;-66
2022/06/28 04:21:24;;;;;;;2.63;1.60;;;;;;;18.24;69.17;101225.88;4147213;28;20520;-66
2022/06/28 04:23:47;;;;;;;8.50;4.17;;;;;;;18.66;64.65;101223.84;4143607;28;20599;-64
2022/06/28 04:25:50;;;;;;;6.50;3.70;;;;;;;18.74;64.03;101227.31;4163657;28;20367;-65
2022/06/28 04:27:59;;;;;;;4.05;2.30;;;;;;;18.83;64.78;101231.63;4163728;28;20107;-65
2022/06/28 04:30:03;;;;;;;4.55;2.10;;;;;;;18.95;63.97;101225.44;4129347;28;20101;-65
2022/06/28 04:32:17;;;;;;;5.65;2.80;;;;;;;19.23;62.43;101225.19;4122990;28;20089;-65
2022/06/28 04:34:21;;;;;;;5.03;2.38;;;;;;;19.11;62.46;101231.44;4113399;28;20039;-65
2022/06/28 04:36:28;;;;;;;6.22;2.17;;;;;;;19.07;64.16;101225.34;4129737;28;20062;-65
2022/06/28 04:38:31;;;;;;;3.70;1.77;;;;;;;19.25;63.48;101224.28;4161082;28;20417;-65
2022/06/28 04:40:46;;;;;;;5.27;2.47;;;;;;;19.39;63.39;101226.81;4143951;28;20052;-65
2022/06/28 04:43:06;;;;;;;3.47;1.83;;;;;;;19.56;63.01;101233.66;4127995;28;20041;-65
2022/06/28 04:45:10;;;;;;;4.18;1.95;;;;;;;19.63;62.90;101232.72;4162553;28;20128;-65
2022/06/28 04:47:26;;;;;;;6.65;3.10;;;;;;;19.60;61.76;101232.75;4159397;28;20147;-65
2022/06/28 04:49:30;;;;;;;5.00;2.10;;;;;;;19.19;62.14;101233.13;4127115;28;20039;-65
2022/06/28 04:51:34;;;;;;;5.15;2.58;;;;;;;19.01;62.54;101230.63;4145791;28;20040;-65
2022/06/28 04:53:39;;;;;;;5.35;2.25;;;;;;;18.82;63.24;101229.88;4158227;28;20463;-65
2022/06/28 04:55:42;;;;;;;6.85;3.35;;;;;;;18.70;63.90;101230.84;4130699;28;20073;-65
2022/06/28 04:57:45;;;;;;;4.78;2.25;;;;;;;18.64;64.00;101230.91;4114471;28;20085;-66
2022/06/28 04:59:52;;;;;;;3.78;2.30;;;;;;;18.57;64.42;101229.19;4130678;28;20049;-65
2022/06/28 05:02:06;;;;;;;4.13;2.60;;;;;;;18.48;64.71;101233.63;4130401;28;20037;-65
2022/06/28 05:04:09;;;;;;;6.75;3.03;;;;;;;18.66;64.16;101229.13;4136495;28;20038;-65
2022/06/28 05:06:31;;;;;;;10.18;4.20;;;;;;;18.67;63.09;101225.59;4141450;28;20072;-65
2022/06/28 05:08:36;;;;;;;13.88;5.03;;;;;;;18.71;63.22;101227.34;4130653;28;20038;-65
2022/06/28 05:10:39;;;;;;;11.70;4.45;;;;;;;18.74;63.17;101218.53;4130576;28;20038;-65
2022/06/28 05:12:55;;;;;;;10.77;4.72;;;;;;;18.71;63.33;101226.47;4129533;28;20524;-65
2022/06/28 05:14:58;;;;;;;8.30;4.97;;;;;;;18.74;63.25;101219.41;4144115;28;20555;-65
2022/06/28 05:17:11;;;;;;;6.57;3.97;;;;;;;18.86;62.59;101225.47;4114336;28;20149;-65
2022/06/28 05:19:14;;;;;;;6.72;4.38;;;;;;;18.80;62.79;101227.25;4163019;28;20042;-65
2022/06/28 05:21:17;;;;;;;6.50;3.50;;;;;;;18.74;63.12;101227.31;4129527;28;20050;-65
2022/06/28 05:23:21;;;;;;;8.35;3.63;;;;;;;18.86;62.37;101225.47;4129382;28;20509;-65
2022/06/28 05:25:51;;;;;;;5.18;3.55;;;;;;;18.89;62.42;101228.13;4147593;28;20133;-65
2022/06/28 05:27:54;;;;;;;;;;;;;;;18.78;62.26;101225.53;4130871;28;20448;-65
2022/06/28 05:29:57;;;;;;;8.93;4.20;;;;;;;18.87;61.25;101227.28;4147791;28;19947;-65
2022/06/28 05:32:00;;;;;;;5.43;3.70;;;;;;;18.87;61.30;101227.28;4130015;28;20105;-65
2022/06/28 05:34:03;;;;;;;5.30;3.33;;;;;;;18.92;60.59;101222.81;4129646;28;20061;-65
2022/06/28 05:36:06;;;;;;;10.38;3.58;;;;;;;18.88;61.41;101223.72;4130166;28;20053;-65
2022/06/28 05:38:09;;;;;;;8.15;3.22;;;;;;;18.91;61.32;101226.34;4130235;28;20042;-65
2022/06/28 05:40:13;;;;;;;5.43;2.90;;;;;;;18.99;60.57;101224.53;4162892;28;20037;-65
2022/06/28 05:42:17;;;;;;;5.10;3.08;;;;;;;19.02;60.04;101227.13;4129790;28;20046;-65
2022/06/28 05:44:20;;;;;;;;;;;;;;;18.92;59.96;101225.47;4146117;28;20513;-65
2022/06/28 05:46:25;;;;;;;3.22;2.28;;;;;;;18.91;59.94;101223.69;4146517;28;19929;-66
2022/06/28 05:48:28;;;;;;;5.68;2.35;;;;;;;18.94;60.72;101229.84;4130241;28;20073;-66
2022/06/28 05:50:31;;;;;;;5.38;1.90;;;;;;;19.00;60.98;101219.22;4130244;28;20557;-65
2022/06/28 05:52:34;;;;;;;7.93;3.53;;;;;;;19.10;60.27;101225.31;4146485;28;20034;-65
2022/06/28 05:54:37;;;;;;;4.47;2.70;;;;;;;19.21;59.76;101219.06;4135217;28;20090;-65
2022/06/28 05:56:40;;;;;;;3.45;2.13;;;;;;;19.27;58.44;101221.63;4130116;28;20043;-66
2022/06/28 05:58:44;;;;;;;4.47;2.20;;;;;;;19.22;58.41;101223.47;4130117;28;20093;-65
2022/06/28 06:00:49;;;;;;;6.03;2.05;;;;;;;19.14;59.03;101228.78;4129349;28;20512;-66
2022/06/28 06:02:52;;;;;;;;;;;;;;;19.03;59.63;101220.97;4130175;28;20537;-65
2022/06/28 06:04:55;;;;;;;3.45;1.73;;;;;;;19.12;60.41;101220.88;4130106;28;19922;-65
2022/06/28 06:06:58;;;;;;;4.20;1.45;;;;;;;19.19;60.17;101219.09;4130160;28;20034;-65
2022/06/28 06:09:01;;;;;;;7.80;1.90;;;;;;;19.36;58.34;101219.78;4129898;28;20149;-65
2022/06/28 06:11:07;;;;;;;4.65;1.92;;;;;;;19.44;58.02;101227.63;4133381;28;20046;-66
2022/06/28 06:13:10;;;;;;;2.22;1.80;;;;;;;19.41;57.89;101222.38;4129561;28;20113;-65
2022/06/28 06:15:14;;;;;;;3.55;1.83;;;;;;;19.52;57.26;101227.53;4129939;28;20097;-65
2022/06/28 06:17:17;;;;;;;3.17;1.80;;;;;;;19.44;57.28;101222.34;4147448;28;20077;-65
2022/06/28 06:19:20;;;;;;;4.68;2.10;;;;;;;19.48;57.07;101223.19;4129990;28;20042;-65
2022/06/28 06:21:23;;;;;;;4.28;1.85;;;;;;;19.53;56.10;101214.31;4129170;28;20128;-65
2022/06/28 06:23:26;;;;;;;5.60;1.80;;;;;;;19.63;55.80;101219.50;4113634;28;20093;-65
2022/06/28 06:25:35;;;;;;;2.92;1.52;;;;;;;19.75;54.70;101214.09;4147373;28;20448;-65
2022/06/28 06:27:38;;;;;;;3.20;1.80;;;;;;;19.68;55.69;101212.41;4147279;28;20046;-65
2022/06/28 06:29:41;;;;;;;2.78;1.42;;;;;;;19.77;54.20;101207.03;4130133;28;20424;-66
2022/06/28 06:31:52;;;;;;;2.85;1.67;;;;;;;19.72;53.43;101208.84;4129641;28;20038;-65
2022/06/28 06:34:28;;;;;;;4.85;1.75;;;;;;;19.80;53.70;101209.66;4116542;28;20053;-64
2022/06/28 06:36:36;;;;;;;3.95;1.67;;;;;;;19.79;54.45;101199.13;4132770;28;20038;-65
2022/06/28 06:38:40;;;;;;;4.80;2.05;;;;;;;19.93;52.16;101193.66;4132884;28;20117;-65
2022/06/28 06:40:44;;;;;;;3.70;1.35;;;;;;;19.98;52.21;101199.78;4136313;28;20042;-65
2022/06/28 06:42:47;;;;;;;6.05;2.20;;;;;;;19.93;53.18;101202.47;4164777;28;20042;-65
2022/06/28 06:44:50;;;;;;;5.60;1.70;;;;;;;19.99;51.92;101201.50;4150120;28;20520;-65
2022/06/28 06:46:55;;;;;;;3.05;1.10;;;;;;;19.99;51.44;101214.69;4132756;28;20035;-65
2022/06/28 06:48:58;;;;;;;4.07;1.30;;;;;;;20.08;50.30;101217.25;4116521;28;20043;-65
2022/06/28 06:51:01;;;;;;;2.28;1.33;;;;;;;20.22;49.31;101210.00;4136707;28;20030;-64
2022/06/28 06:53:05;;;;;;;2.47;1.67;;;;;;;20.19;50.00;101212.69;4117437;28;20085;-65
2022/06/28 06:55:10;;;;;;;6.47;1.88;;;;;;;20.29;49.55;101207.28;4132620;28;20341;-66
2022/06/28 06:57:15;;;;;;;3.80;1.88;;;;;;;20.21;49.54;101202.13;4116359;28;20533;-66
2022/06/28 06:59:18;;;;;;;3.85;1.50;;;;;;;20.20;48.56;101195.06;4165126;28;20132;-65
2022/06/28 07:01:21;;;;;;;3.38;1.60;;;;;;;20.09;49.56;101196.97;4131690;28;20053;-65
2022/06/28 07:03:46;;;;;;;3.05;1.38;;;;;;;20.18;49.50;101189.81;4132246;28;20506;-65
2022/06/28 07:05:49;;;;;;;4.00;1.60;;;;;;;20.28;48.40;101187.94;4132582;28;20042;-66
2022/06/28 07:07:52;;;;;;;3.35;1.70;;;;;;;20.34;48.33;101197.50;4132495;28;20075;-65
2022/06/28 07:10:00;;;;;;;3.45;1.30;;;;;;;20.34;48.85;101192.22;4131469;28;20046;-66
2022/06/28 07:12:04;;;;;;;5.15;1.45;;;;;;;20.36;48.90;101190.44;4162772;28;20045;-66
2022/06/28 07:14:07;;;;;;;3.50;1.53;;;;;;;20.30;49.21;101185.28;4132301;28;20124;-65
2022/06/28 07:16:10;;;;;;;3.20;1.50;;;;;;;20.41;47.74;101188.59;4132198;28;20034;-66
2022/06/28 07:18:13;;;;;;;4.82;1.30;;;;;;;20.43;48.01;101184.19;4132489;28;20054;-65
2022/06/28 07:20:17;;;;;;;4.70;1.85;;;;;;;20.44;48.42;101188.56;4163522;28;20037;-65
2022/06/28 07:22:21;;;;;;;6.78;2.03;;;;;;;20.56;47.81;101184.88;4131742;28;20042;-65
2022/06/28 07:24:28;;;;;;;5.22;2.00;;;;;;;20.55;47.19;101189.28;4132260;28;20121;-65
2022/06/28 07:26:31;;;;;;;2.92;1.23;;;;;;;20.68;46.16;101191.75;4115862;28;20039;-66
2022/06/28 07:28:34;;;;;;;3.50;1.48;;;;;;;20.64;47.00;101190.91;4164716;28;20047;-65
2022/06/28 07:30:37;;;;;;;4.15;1.52;;;;;;;20.68;46.31;101191.75;4131359;28;20129;-65
2022/06/28 07:32:41;;;;;;;4.55;1.50;;;;;;;20.62;46.29;101186.53;4147703;28;20030;-65
2022/06/28 07:34:44;;;;;;;2.78;1.33;;;;;;;20.57;47.81;101181.31;4132132;28;20066;-65
2022/06/28 07:36:49;;;;;;;3.17;1.20;;;;;;;20.69;47.22;101183.81;4131942;28;20044;-68
2022/06/28 07:38:54;;;;;;;2.78;1.20;;;;;;;20.71;46.36;101183.78;4132281;28;20046;-67
2022/06/28 07:40:57;;;;;;;3.95;1.60;;;;;;;20.87;45.60;101185.25;4150542;28;20120;-67
2022/06/28 07:43:21;;;;;;;2.95;1.08;;;;;;;20.78;46.27;101181.91;4137986;28;20065;-68
2022/06/28 07:45:36;;;;;;;4.65;1.30;;;;;;;20.76;46.52;101176.63;4131706;28;20130;-66
2022/06/28 07:47:47;;;;;;;5.65;1.20;;;;;;;20.93;47.15;101177.22;4135454;28;20452;-67
2022/06/28 07:54:33;;;;;;;1.75;1.23;;;;;;;21.10;45.29;101178.72;4115627;28;20102;-67
2022/06/28 07:56:48;;;;;;;4.05;1.30;;;;;;;21.20;45.53;101171.47;4131537;28;20442;-68
2022/06/28 07:58:52;;;;;;;2.58;1.27;;;;;;;21.25;44.85;101172.28;4134840;28;20084;-67
2022/06/28 08:00:59;;;;;;;2.50;1.25;;;;;;;21.12;45.80;101171.63;4149964;28;20046;-66
2022/06/28 08:03:04;;;;;;;2.50;0.93;;;;;;;21.22;46.05;101174.97;4131251;28;20044;-65
2022/06/28 08:05:08;;;;;;;3.78;1.10;;;;;;;21.49;44.70;101170.03;4131525;28;20042;-68
2022/06/28 08:07:13;;;;;;;2.50;1.10;;;;;;;21.42;45.44;101171.94;4115397;28;20081;-66
2022/06/28 08:09:18;;;;;;;3.28;1.45;;;;;;;21.44;44.75;101164.84;4130705;28;20456;-67
2022/06/28 08:11:23;;;;;;;3.20;1.30;;;;;;;21.48;43.74;101157.72;4115154;28;20047;-68
2022/06/28 08:13:26;;;;;;;3.00;1.20;;;;;;;21.42;43.62;101164.88;4131204;28;20390;-66
2022/06/28 08:15:29;;;;;;;4.10;2.65;;;;;;;21.55;43.77;101159.38;4131211;28;20058;-64
2022/06/28 08:17:32;;;;;;;4.20;1.30;;;;;;;21.66;44.40;101156.53;4115263;28;20047;-66
2022/06/28 08:19:36;;;;;;;2.40;1.27;;;;;;;21.72;43.86;101157.25;4114673;28;20094;-66
2022/06/28 08:21:39;;;;;;;3.58;1.20;;;;;;;21.71;43.91;101157.28;4163355;28;20038;-66
2022/06/28 08:23:43;;;;;;;4.10;1.77;;;;;;;21.75;44.35;101156.31;4131288;28;20414;-68
2022/06/28 08:25:47;;;;;;;1.95;1.38;;;;;;;21.60;45.24;101147.78;4131115;28;20048;-67
2022/06/28 08:27:50;;;;;;;2.53;1.35;;;;;;;21.61;45.42;101138.06;4131207;28;20505;-66
2022/06/28 08:29:53;;;;;;;5.72;1.92;;;;;;;21.73;45.99;101136.97;4130440;28;20034;-69
2022/06/28 08:31:56;;;;;;;5.38;1.77;;;;;;;21.74;45.42;101133.41;4130554;28;20034;-66
2022/06/28 08:33:59;;;;;;;4.18;1.30;;;;;;;21.71;45.39;101138.75;4147296;28;20045;-66
2022/06/28 08:36:02;;;;;;;3.33;1.25;;;;;;;21.71;44.64;101136.09;4131072;28;20311;-67
2022/06/28 08:38:05;;;;;;;4.22;1.60;;;;;;;21.80;44.74;101133.28;4147505;28;20041;-66
2022/06/28 08:40:10;;;;;;;3.85;1.20;;;;;;;21.87;43.90;101129.56;4130980;28;20046;-64
2022/06/28 08:42:16;;;;;;;5.60;1.55;;;;;;;21.95;44.19;101132.94;4146614;28;20153;-66
2022/06/28 08:44:19;;;;;;;4.97;1.60;;;;;;;22.12;44.09;101129.91;4148391;28;20066;-66
2022/06/28 08:46:24;;;;;;;2.83;1.42;;;;;;;22.10;42.53;101134.34;4148334;28;20045;-65
2022/06/28 08:48:31;;;;;;;;;;;;;;;22.13;41.64;101121.03;4136400;28;20049;-68
2022/06/28 08:50:39;;;;;;;4.43;1.15;;;;;;;22.22;39.78;101119.94;4148142;28;19927;-67
2022/06/28 08:52:44;;;;;;;1.60;1.15;;;;;;;22.09;40.95;101118.50;4163387;28;20068;-65
2022/06/28 08:54:49;;;;;;;2.38;1.50;;;;;;;22.22;39.26;101117.31;4163879;28;20040;-68
2022/06/28 08:56:53;;;;;;;2.22;1.10;;;;;;;22.10;40.13;101121.09;4163949;28;20042;-66
2022/06/28 08:58:57;;;;;;;;;;;;;;;22.11;39.58;101122.00;4151764;28;20501;-69
2022/06/28 09:01:00;;;;;;;3.15;1.23;;;;;;;22.18;39.64;101113.00;4147986;28;19925;-66
2022/06/28 09:03:04;;;;;;;3.88;1.50;;;;;;;22.19;39.96;101114.72;4147615;28;20132;-65
2022/06/28 09:05:07;;;;;;;2.92;1.42;;;;;;;22.26;40.63;101112.81;4148040;28;20052;-64
2022/06/28 09:07:10;;;;;;;4.07;1.70;;;;;;;22.35;41.56;101104.66;4148014;28;20053;-66
2022/06/28 09:09:13;;;;;;;3.78;1.88;;;;;;;22.51;42.10;101105.16;4146957;28;20048;-65
2022/06/28 09:11:16;;;;;;;3.38;1.55;;;;;;;22.54;41.25;101107.72;4147837;28;20038;-65
2022/06/28 09:13:21;;;;;;;2.65;1.40;;;;;;;22.64;40.55;101103.94;4147545;28;20136;-67
2022/06/28 09:15:26;;;;;;;3.35;1.13;;;;;;;22.67;39.04;101103.84;4130463;28;20129;-66
2022/06/28 09:17:31;;;;;;;4.13;1.42;;;;;;;22.67;37.61;101089.75;4147713;28;20144;-67
2022/06/28 09:19:35;;;;;;;3.92;1.50;;;;;;;22.58;39.26;101080.25;4129489;28;20141;-66
2022/06/28 09:21:42;;;;;;;3.25;1.00;;;;;;;22.69;38.78;101087.03;4128784;28;20053;-65
2022/06/28 09:23:52;;;;;;;2.33;1.15;;;;;;;22.91;37.48;101085.56;4147634;28;20545;-67
2022/06/28 09:25:57;;;;;;;6.53;1.20;;;;;;;22.98;37.09;101076.53;4129946;28;20048;-65
2022/06/28 09:28:02;;;;;;;2.60;0.98;;;;;;;23.00;37.83;101077.34;4147628;28;20074;-66
2022/06/28 09:30:10;;;;;;;2.03;1.30;;;;;;;23.18;37.77;101070.69;4147727;28;20073;-65
2022/06/28 09:32:13;;;;;;;3.42;1.45;;;;;;;23.35;39.14;101059.59;4129954;28;20042;-66
2022/06/28 09:34:16;;;;;;;2.55;1.50;;;;;;;23.39;38.94;101062.16;4148065;28;20056;-67
2022/06/28 09:36:19;;;;;;;5.97;1.42;;;;;;;23.42;38.69;101062.94;4146865;28;20065;-66
2022/06/28 09:38:32;;;;;;;3.80;1.20;;;;;;;23.44;38.08;101058.47;4129518;28;20454;-66
2022/06/28 09:40:36;;;;;;;2.65;1.20;;;;;;;23.40;37.54;101054.16;4153072;28;20050;-66
2022/06/28 09:42:39;;;;;;;2.63;1.02;;;;;;;23.52;33.91;101050.25;4147101;28;20026;-65
2022/06/28 09:44:51;;;;;;;2.03;0.80;;;;;;;23.57;35.41;101040.38;4130053;28;20101;-66
2022/06/28 09:46:57;;;;;;;3.17;1.17;;;;;;;23.62;35.39;101050.84;4147511;28;20768;-66
2022/06/28 09:49:03;;;;;;;1.23;0.93;;;;;;;23.48;35.47;101038.88;4130142;28;20054;-65
2022/06/28 09:51:05;;;;;;;4.68;1.58;;;;;;;23.53;35.93;101044.03;4130168;28;20062;-65
2022/06/28 09:53:12;;;;;;;2.95;1.10;;;;;;;23.53;36.20;101036.09;4154532;28;20096;-66
2022/06/28 09:55:17;;;;;;;3.13;1.25;;;;;;;23.54;37.21;101029.88;4147490;28;20080;-65
2022/06/28 09:57:21;;;;;;;1.77;1.08;;;;;;;23.51;37.38;101025.50;4146110;28;20144;-68
2022/06/28 09:59:25;;;;;;;;;;;;;;;23.67;36.79;101025.91;4147947;28;20575;-65
2022/06/28 10:01:28;;;;;;;11.00;1.10;;;;;;;23.77;36.15;101025.59;4146374;28;20308;-66